Time;durP1;ratioP1;P1;durP2;ratioP2;P2;SDS_P1;SDS_P2;PMS_P1;PMS_P2;Temp;Humidity;BMP_temperature;BMP_pressure;BME280_temperature;BME280_humidity;BME280_pressure;Samples;Min_cycle;Max_cycle;Signal;HPM_P1;HPM_P2
2024/01/19 00:00:13;;;;;;;25.40;16.80;;;;;;;15.06;45.46;101437.91;4948162;28;20051;-40
2024/01/19 00:02:40;;;;;;;25.17;16.40;;;;;;;15.14;46.35;101439.16;4947564;29;20052;-36
2024/01/19 00:05:07;;;;;;;25.90;16.60;;;;;;;15.17;45.80;101439.75;4947209;29;20062;-39
2024/01/19 00:07:34;;;;;;;27.10;15.90;;;;;;;15.15;45.13;101424.81;4945120;29;20055;-36
2024/01/19 00:10:01;;;;;;;27.30;16.92;;;;;;;15.07;45.97;101428.09;4947967;28;20043;-36
2024/01/19 00:12:28;;;;;;;26.20;16.88;;;;;;;15.03;45.40;101431.97;4944291;29;20059;-36
2024/01/19 00:14:54;;;;;;;27.65;16.02;;;;;;;15.00;45.54;101434.91;4944313;29;20056;-38
2024/01/19 00:17:21;;;;;;;24.95;15.95;;;;;;;14.99;46.40;101435.84;4945974;29;20059;-36
2024/01/19 00:19:47;;;;;;;23.95;16.00;;;;;;;14.98;46.24;101434.16;4946119;29;20058;-38
2024/01/19 00:22:14;;;;;;;24.50;15.27;;;;;;;14.96;46.15;101436.09;4943584;28;20062;-38
2024/01/19 00:24:41;;;;;;;23.70;14.75;;;;;;;14.94;45.84;101435.34;4943043;29;20436;-36
2024/01/19 00:27:07;;;;;;;24.13;15.52;;;;;;;14.92;45.77;101434.66;4946578;29;20055;-39
2024/01/19 00:29:34;;;;;;;24.52;15.35;;;;;;;14.88;46.46;101438.53;4943788;29;20102;-34
2024/01/19 00:32:00;;;;;;;22.42;13.85;;;;;;;14.81;46.35;101446.13;4947258;29;20127;-36
2024/01/19 00:34:27;;;;;;;21.05;14.18;;;;;;;14.74;45.76;101440.41;4945715;29;20051;-37
2024/01/19 00:36:53;;;;;;;23.13;14.20;;;;;;;14.65;46.50;101443.78;4948331;29;20047;-36
2024/01/19 00:39:20;;;;;;;22.13;14.10;;;;;;;14.57;46.75;101443.53;4948268;29;20048;-38
2024/01/19 00:41:47;;;;;;;20.65;13.80;;;;;;;14.45;46.44;101447.94;4946918;29;20043;-35
2024/01/19 00:44:14;;;;;;;21.58;13.30;;;;;;;14.39;46.62;101447.53;4947746;29;20050;-35
2024/01/19 00:46:41;;;;;;;22.33;14.05;;;;;;;14.41;46.70;101453.63;4948407;29;20047;-35
2024/01/19 00:49:07;;;;;;;24.10;13.95;;;;;;;14.39;46.57;101453.75;4943846;28;20062;-35
2024/01/19 00:51:34;;;;;;;19.65;12.50;;;;;;;14.43;46.98;101460.53;4946285;29;20122;-37
2024/01/19 00:54:00;;;;;;;20.45;12.77;;;;;;;14.54;46.95;101462.41;4947536;28;20137;-36
2024/01/19 00:56:27;;;;;;;19.33;12.32;;;;;;;14.67;46.69;101468.50;4948596;29;20058;-36
2024/01/19 00:58:54;;;;;;;20.42;12.15;;;;;;;14.80;46.24;101477.31;4947929;29;20098;-36
2024/01/19 01:01:20;;;;;;;17.83;11.68;;;;;;;14.91;46.44;101475.63;4946283;29;20047;-38
2024/01/19 01:03:48;;;;;;;18.15;12.07;;;;;;;15.02;45.35;101479.16;4944711;28;20126;-39
2024/01/19 01:06:15;;;;;;;17.85;11.15;;;;;;;15.13;45.18;101474.84;4942884;29;20051;-37
2024/01/19 01:08:42;;;;;;;17.85;11.23;;;;;;;15.21;45.07;101478.59;4944055;29;20077;-36
2024/01/19 01:11:08;;;;;;;17.40;10.85;;;;;;;15.31;44.54;101478.72;4945226;28;20054;-35
2024/01/19 01:13:35;;;;;;;17.63;11.50;;;;;;;15.38;45.01;101477.28;4945445;29;20064;-38
2024/01/19 01:16:02;;;;;;;14.32;9.55;;;;;;;15.44;44.63;101475.97;4948747;29;20102;-37
2024/01/19 01:18:28;;;;;;;15.65;10.57;;;;;;;15.47;45.35;101481.03;4945266;29;20059;-39
2024/01/19 01:20:57;;;;;;;16.52;10.77;;;;;;;15.46;44.88;101477.53;4944591;29;20827;-39
2024/01/19 01:23:24;;;;;;;16.27;10.60;;;;;;;15.40;44.21;101477.16;4942452;29;20079;-35
2024/01/19 01:25:51;;;;;;;16.20;10.88;;;;;;;15.31;44.88;101479.56;4943482;29;20055;-35
2024/01/19 01:28:17;;;;;;;14.02;8.98;;;;;;;15.28;45.63;101479.81;4940400;29;20475;-35
2024/01/19 01:30:44;;;;;;;14.60;9.63;;;;;;;15.25;45.50;101482.72;4946634;28;20043;-35
2024/01/19 01:33:11;;;;;;;15.85;9.65;;;;;;;15.22;45.61;101485.63;4946938;29;20530;-36
2024/01/19 01:35:38;;;;;;;14.65;9.57;;;;;;;15.21;44.52;101483.94;4945697;29;20085;-36
2024/01/19 01:38:05;;;;;;;15.27;9.30;;;;;;;15.19;44.83;101483.19;4949372;28;20047;-37
2024/01/19 01:40:32;;;;;;;14.05;9.75;;;;;;;15.17;44.55;101486.97;4945581;28;20126;-35
2024/01/19 01:43:01;;;;;;;13.80;9.20;;;;;;;15.12;45.17;101487.34;4947155;28;20557;-36
2024/01/19 01:45:28;;;;;;;13.93;9.25;;;;;;;15.11;45.32;101490.09;4949638;28;20055;-35
2024/01/19 01:47:55;;;;;;;14.27;8.77;;;;;;;15.08;45.24;101493.88;4949745;28;20078;-36
2024/01/19 01:50:23;;;;;;;14.25;8.82;;;;;;;15.02;44.81;101492.50;4949200;29;20057;-36
2024/01/19 01:52:51;;;;;;;15.40;9.15;;;;;;;14.94;44.92;101499.41;4943243;29;20048;-36
2024/01/19 01:55:18;;;;;;;14.50;8.52;;;;;;;14.86;44.88;101500.00;4948060;28;20054;-35
2024/01/19 01:57:46;;;;;;;13.70;8.48;;;;;;;14.76;45.69;101510.53;4950600;29;20051;-35
2024/01/19 02:00:15;;;;;;;14.30;8.70;;;;;;;14.78;46.25;101511.25;4942558;29;20059;-38
2024/01/19 02:02:42;;;;;;;12.98;8.18;;;;;;;14.89;45.41;101520.28;4944697;28;20114;-35
2024/01/19 02:05:08;;;;;;;12.73;8.43;;;;;;;14.99;45.15;101518.59;4949561;28;20079;-35
2024/01/19 02:07:35;;;;;;;12.10;8.50;;;;;;;15.06;45.27;101517.16;4946447;28;20070;-36
2024/01/19 02:10:02;;;;;;;12.05;7.75;;;;;;;15.14;45.57;101520.09;4945789;29;20265;-37
2024/01/19 02:12:29;;;;;;;12.65;8.32;;;;;;;15.20;45.45;101519.63;4943282;29;20047;-37
2024/01/19 02:14:57;;;;;;;12.55;7.70;;;;;;;15.27;45.25;101518.16;4948502;28;20055;-35
2024/01/19 02:17:26;;;;;;;12.68;7.88;;;;;;;15.35;45.62;101525.59;4945930;28;20518;-38
2024/01/19 02:19:53;;;;;;;12.85;7.18;;;;;;;15.43;45.59;101525.84;4943465;28;20066;-36
2024/01/19 02:22:20;;;;;;;11.70;7.05;;;;;;;15.48;45.51;101520.16;4942595;29;20055;-35
2024/01/19 02:24:46;;;;;;;10.77;7.10;;;;;;;15.52;44.98;101532.31;4943270;28;20056;-40
2024/01/19 02:27:14;;;;;;;11.38;7.47;;;;;;;15.54;44.47;101541.88;4943044;29;20043;-36
2024/01/19 02:29:50;;;;;;;11.45;6.80;;;;;;;15.54;44.88;101530.34;4940945;29;20078;-37
2024/01/19 02:32:17;;;;;;;12.07;6.88;;;;;;;15.55;44.22;101537.38;4944686;29;20495;-36
2024/01/19 02:34:46;;;;;;;9.55;6.53;;;;;;;15.50;44.38;101540.41;4941164;29;20059;-36
2024/01/19 02:37:15;;;;;;;9.13;6.47;;;;;;;15.46;45.01;101535.44;4945772;29;20098;-34
2024/01/19 02:39:42;;;;;;;9.63;6.25;;;;;;;15.40;45.43;101541.28;4942608;29;20083;-35
2024/01/19 02:42:08;;;;;;;10.20;6.32;;;;;;;15.35;45.77;101544.28;4945402;28;20079;-35
2024/01/19 02:44:35;;;;;;;12.27;7.20;;;;;;;15.30;45.76;101536.63;4942990;28;20174;-35
2024/01/19 02:47:02;;;;;;;9.55;6.30;;;;;;;15.26;45.88;101545.00;4940680;29;20267;-37
2024/01/19 02:49:29;;;;;;;9.38;6.38;;;;;;;15.21;45.50;101541.84;4941648;28;20043;-36
2024/01/19 02:51:56;;;;;;;9.27;6.35;;;;;;;15.16;45.10;101541.34;4943591;29;20074;-37
2024/01/19 02:54:22;;;;;;;9.25;6.25;;;;;;;15.11;46.12;101544.34;4943421;29;20051;-38
2024/01/19 02:56:49;;;;;;;10.77;6.07;;;;;;;15.06;45.64;101543.84;4939712;29;20146;-36
2024/01/19 02:59:16;;;;;;;8.77;5.88;;;;;;;15.05;45.72;101545.69;4945605;28;20133;-37
2024/01/19 03:01:43;;;;;;;9.50;6.20;;;;;;;15.09;45.41;101551.63;4942156;29;20135;-37
2024/01/19 03:04:09;;;;;;;9.02;5.90;;;;;;;15.14;45.47;101562.81;4958508;28;20047;-36
2024/01/19 03:06:36;;;;;;;10.48;5.97;;;;;;;15.15;46.04;101558.31;4945800;28;20059;-37
2024/01/19 03:09:03;;;;;;;8.88;5.57;;;;;;;15.15;45.72;101564.50;4941518;29;20064;-36
2024/01/19 03:11:30;;;;;;;8.70;5.43;;;;;;;15.17;46.08;101567.06;4940346;28;20051;-36
2024/01/19 03:13:57;;;;;;;7.68;5.38;;;;;;;15.23;45.78;101570.09;4943593;29;20048;-36
2024/01/19 03:16:24;;;;;;;8.18;5.70;;;;;;;15.31;45.57;101570.38;4939406;29;20051;-37
2024/01/19 03:18:54;;;;;;;8.48;5.78;;;;;;;15.39;45.79;101572.47;4938983;28;20047;-39
2024/01/19 03:21:21;;;;;;;7.05;4.90;;;;;;;15.47;45.41;101570.03;4945277;28;20507;-38
2024/01/19 03:23:48;;;;;;;9.00;5.32;;;;;;;15.55;45.60;101569.44;4943913;29;20052;-36
2024/01/19 03:26:15;;;;;;;8.23;5.47;;;;;;;15.62;45.14;101570.69;4943907;29;20343;-37
2024/01/19 03:28:41;;;;;;;7.82;5.00;;;;;;;15.68;45.42;101574.75;4941947;29;20047;-37
2024/01/19 03:31:08;;;;;;;8.00;5.22;;;;;;;15.73;44.65;101572.56;4942437;29;20078;-36
2024/01/19 03:33:35;;;;;;;6.50;4.43;;;;;;;15.77;44.35;101571.34;4945064;29;20332;-38
2024/01/19 03:36:02;;;;;;;7.05;4.65;;;;;;;15.78;45.23;101565.00;4948803;29;20456;-36
2024/01/19 03:38:30;;;;;;;6.05;4.13;;;;;;;15.76;44.44;101570.50;4947362;28;20081;-37
2024/01/19 03:40:57;;;;;;;6.18;4.43;;;;;;;15.66;44.46;101569.50;4945375;29;20362;-37
2024/01/19 03:43:24;;;;;;;7.43;4.63;;;;;;;15.57;45.08;101566.69;4946256;28;20082;-36
2024/01/19 03:45:51;;;;;;;7.10;4.70;;;;;;;15.47;44.63;101577.22;4947733;28;20087;-35
2024/01/19 03:48:18;;;;;;;7.72;4.90;;;;;;;15.37;44.95;101585.09;4946107;28;20086;-35
2024/01/19 03:50:45;;;;;;;7.15;4.82;;;;;;;15.25;45.46;101584.22;4942775;29;20444;-37
2024/01/19 03:53:11;;;;;;;7.88;4.95;;;;;;;15.19;46.07;101587.34;4949495;29;20188;-37
2024/01/19 03:55:38;;;;;;;6.75;4.60;;;;;;;15.12;45.26;101596.81;4941109;29;20055;-35
2024/01/19 03:58:04;;;;;;;6.28;4.15;;;;;;;15.07;46.41;101604.28;4944687;29;20162;-35
2024/01/19 04:00:31;;;;;;;6.70;3.92;;;;;;;15.06;45.65;101599.91;4948274;29;20435;-36
2024/01/19 04:02:57;;;;;;;6.93;4.45;;;;;;;15.02;45.69;101601.97;4944322;29;20459;-35
2024/01/19 04:05:24;;;;;;;6.88;4.47;;;;;;;15.01;46.24;101612.78;4949759;28;20442;-37
2024/01/19 04:07:51;;;;;;;6.68;4.15;;;;;;;15.00;46.31;101643.13;4944820;29;20102;-36
2024/01/19 04:10:17;;;;;;;6.75;4.35;;;;;;;14.97;46.05;101659.34;4948529;29;20499;-36
2024/01/19 04:12:44;;;;;;;5.35;3.72;;;;;;;14.85;46.30;101673.59;4950907;29;20062;-35
2024/01/19 04:15:11;;;;;;;9.32;5.20;;;;;;;14.77;47.23;101687.50;4945664;28;20163;-39
2024/01/19 04:17:38;;;;;;;5.40;3.60;;;;;;;14.79;46.34;101689.09;4948692;29;20483;-36
2024/01/19 04:20:05;;;;;;;5.40;3.67;;;;;;;14.85;47.30;101692.28;4947944;29;20494;-36
2024/01/19 04:22:32;;;;;;;6.55;4.20;;;;;;;14.96;46.20;101703.88;4945323;28;20346;-36
2024/01/19 04:24:58;;;;;;;5.30;3.65;;;;;;;15.08;46.08;101701.28;4948994;28;20047;-37
2024/01/19 04:27:25;;;;;;;6.47;4.07;;;;;;;15.18;46.30;101694.28;4946829;29;20473;-38
2024/01/19 04:29:51;;;;;;;5.43;3.67;;;;;;;15.27;45.78;101662.38;4951734;29;20376;-37
2024/01/19 04:32:20;;;;;;;5.45;3.92;;;;;;;15.39;45.75;101684.66;4945223;29;20377;-36
2024/01/19 04:34:46;;;;;;;5.35;3.10;;;;;;;15.49;46.45;101679.47;4945256;29;20083;-37
2024/01/19 04:37:14;;;;;;;5.40;3.40;;;;;;;15.58;46.26;101678.75;4948481;29;20047;-39
2024/01/19 04:39:40;;;;;;;4.95;3.28;;;;;;;15.65;45.87;101669.34;4938702;29;20060;-38
2024/01/19 04:42:07;;;;;;;4.85;3.72;;;;;;;15.71;46.04;101674.22;4944387;29;20122;-37
2024/01/19 04:44:34;;;;;;;4.35;2.80;;;;;;;15.75;45.29;101673.00;4945198;28;20051;-39
2024/01/19 04:47:01;;;;;;;6.18;3.85;;;;;;;15.77;44.96;101679.09;4943914;28;20059;-37
2024/01/19 04:49:27;;;;;;;8.80;3.40;;;;;;;15.75;44.87;101681.03;4944002;28;20107;-37
2024/01/19 04:51:54;;;;;;;4.85;3.25;;;;;;;15.67;45.80;101683.44;4944358;29;20039;-36
2024/01/19 04:54:21;;;;;;;4.60;2.97;;;;;;;15.57;45.53;101681.56;4946708;28;20138;-37
2024/01/19 04:56:47;;;;;;;4.60;3.35;;;;;;;15.47;45.96;101690.25;4945639;29;20058;-38
2024/01/19 04:59:14;;;;;;;5.00;3.00;;;;;;;15.38;46.00;101692.78;4943256;29;20055;-36
2024/01/19 05:01:40;;;;;;;5.07;3.65;;;;;;;15.26;46.33;101689.22;4944887;29;20043;-37
2024/01/19 05:04:07;;;;;;;4.20;2.88;;;;;;;15.17;45.95;101688.09;4945921;28;20047;-39
2024/01/19 05:06:34;;;;;;;4.10;2.80;;;;;;;15.12;46.73;101695.59;4944066;29;20079;-36
2024/01/19 05:09:01;;;;;;;4.25;2.72;;;;;;;15.08;46.00;101701.28;4946503;28;20051;-36
2024/01/19 05:11:27;;;;;;;5.18;3.08;;;;;;;15.04;46.46;101695.31;4945905;28;20054;-37
2024/01/19 05:13:54;;;;;;;4.38;3.03;;;;;;;15.02;46.34;101698.06;4947082;29;20370;-36
2024/01/19 05:16:20;;;;;;;3.40;2.40;;;;;;;15.04;46.85;101714.00;4941883;28;20083;-37
2024/01/19 05:18:47;;;;;;;4.25;2.60;;;;;;;15.04;46.57;101712.19;4943997;29;20051;-37
2024/01/19 05:21:13;;;;;;;3.83;2.55;;;;;;;15.02;46.39;101714.09;4946717;29;20065;-36
2024/01/19 05:23:40;;;;;;;3.40;2.53;;;;;;;15.00;46.71;101728.53;4946858;28;20082;-42
2024/01/19 05:26:08;;;;;;;4.13;2.65;;;;;;;14.93;46.69;101735.28;4943662;29;20051;-36
2024/01/19 05:28:36;;;;;;;3.22;2.28;;;;;;;14.84;46.20;101736.81;4945195;29;20044;-37
2024/01/19 05:31:03;;;;;;;4.45;2.17;;;;;;;14.79;47.38;101746.94;4943412;28;20055;-37
2024/01/19 05:33:31;;;;;;;4.30;2.63;;;;;;;14.83;46.87;101748.41;4946398;28;20051;-37
2024/01/19 05:36:03;;;;;;;4.40;2.92;;;;;;;14.93;46.90;101754.81;4944118;28;20058;-37
2024/01/19 05:38:29;;;;;;;3.63;2.47;;;;;;;15.05;46.72;101758.41;4940096;28;20343;-37
2024/01/19 05:41:01;;;;;;;4.43;2.58;;;;;;;15.15;46.86;101753.25;4946025;29;20451;-39
2024/01/19 05:43:27;;;;;;;3.63;2.67;;;;;;;15.25;46.30;101754.28;4943134;28;20066;-37
2024/01/19 05:45:54;;;;;;;4.07;2.50;;;;;;;15.36;45.62;101756.16;4941260;29;20055;-37
2024/01/19 05:48:22;;;;;;;4.28;2.20;;;;;;;15.44;46.25;101761.81;4943297;29;20134;-37
2024/01/19 05:50:50;;;;;;;4.25;2.60;;;;;;;15.51;45.64;101763.88;4943513;28;20052;-37
2024/01/19 05:53:16;;;;;;;4.15;2.30;;;;;;;15.59;45.18;101765.13;4946499;29;20048;-38
2024/01/19 05:55:43;;;;;;;3.15;1.70;;;;;;;15.63;45.62;101769.25;4940082;29;20055;-36
2024/01/19 05:58:09;;;;;;;3.22;2.10;;;;;;;15.67;45.05;101784.13;4946380;28;20047;-39
2024/01/19 06:00:36;;;;;;;3.22;2.30;;;;;;;15.66;44.54;101780.63;4942141;29;20142;-37
2024/01/19 06:03:03;;;;;;;3.13;2.08;;;;;;;15.59;45.50;101787.34;4943354;29;20119;-36
2024/01/19 06:05:32;;;;;;;2.78;2.03;;;;;;;15.51;45.84;101797.75;4941665;29;20051;-37
2024/01/19 06:07:59;;;;;;;4.72;2.47;;;;;;;15.44;44.94;101801.88;4947624;28;20115;-37
2024/01/19 06:10:25;;;;;;;6.03;2.13;;;;;;;15.36;45.07;101796.25;4945364;29;20066;-37
2024/01/19 06:12:52;;;;;;;3.30;1.88;;;;;;;15.25;45.36;101803.22;4943521;29;20051;-37
2024/01/19 06:15:19;;;;;;;2.90;2.00;;;;;;;15.17;46.43;101815.41;4947197;29;20066;-36
2024/01/19 06:17:45;;;;;;;2.63;2.10;;;;;;;15.06;46.61;101819.69;4942639;28;20059;-36
2024/01/19 06:20:12;;;;;;;3.28;1.80;;;;;;;15.01;46.25;101829.00;4940953;28;20462;-36
2024/01/19 06:22:40;;;;;;;3.05;1.92;;;;;;;15.01;46.49;101821.84;4954456;28;20079;-36
2024/01/19 06:25:07;;;;;;;2.60;1.90;;;;;;;15.03;46.38;101819.94;4945855;29;20356;-38
2024/01/19 06:27:33;;;;;;;2.88;1.75;;;;;;;15.05;46.62;101825.16;4944557;28;20412;-36
2024/01/19 06:30:00;;;;;;;3.17;2.03;;;;;;;15.05;46.41;101820.66;4944389;29;20055;-36
2024/01/19 06:32:27;;;;;;;4.72;1.90;;;;;;;15.06;46.05;101832.19;4947635;28;20050;-37
2024/01/19 06:34:54;;;;;;;3.05;1.70;;;;;;;15.06;46.43;101834.88;4942438;28;20130;-36
2024/01/19 06:37:20;;;;;;;2.42;1.70;;;;;;;15.02;45.44;101828.88;4945381;28;20051;-36
2024/01/19 06:39:47;;;;;;;4.20;1.73;;;;;;;15.02;45.58;101841.41;4944534;29;20059;-37
2024/01/19 06:42:14;;;;;;;2.78;1.73;;;;;;;14.99;45.43;101844.28;4943102;29;20055;-37
2024/01/19 06:44:43;;;;;;;3.53;1.98;;;;;;;14.94;45.71;101847.28;4944636;29;20177;-36
2024/01/19 06:47:11;;;;;;;2.25;1.38;;;;;;;14.90;45.62;101855.63;4943184;28;20059;-35
2024/01/19 06:49:37;;;;;;;2.97;1.48;;;;;;;14.83;45.43;101849.84;4943047;28;20047;-38
2024/01/19 06:52:05;;;;;;;3.75;1.70;;;;;;;14.78;45.40;101857.31;4942519;29;20141;-36
2024/01/19 06:54:32;;;;;;;2.92;1.77;;;;;;;14.70;46.21;101857.84;4946491;28;20082;-34
2024/01/19 06:56:59;;;;;;;5.18;1.50;;;;;;;14.62;46.42;101851.34;4942900;28;20063;-36
2024/01/19 06:59:25;;;;;;;2.78;1.70;;;;;;;14.55;45.82;101858.91;4945432;28;20051;-34
2024/01/19 07:01:52;;;;;;;2.80;1.73;;;;;;;14.49;46.01;101859.34;4945857;29;20055;-35
2024/01/19 07:04:19;;;;;;;2.50;1.60;;;;;;;14.41;45.83;101867.84;4943857;29;20236;-36
2024/01/19 07:06:46;;;;;;;3.08;1.80;;;;;;;14.31;45.97;101870.31;4945800;29;20427;-37
2024/01/19 07:09:13;;;;;;;2.08;1.58;;;;;;;14.25;46.17;101876.03;4946807;28;20539;-35
2024/01/19 07:11:40;;;;;;;3.03;1.63;;;;;;;14.19;46.49;101880.91;4946670;28;20058;-34
2024/01/19 07:14:07;;;;;;;2.45;1.60;;;;;;;14.12;46.52;101887.66;4946046;29;20134;-35
2024/01/19 07:16:38;;;;;;;2.35;1.42;;;;;;;14.04;46.45;101893.47;4945640;29;20086;-36
2024/01/19 07:19:05;;;;;;;2.63;1.42;;;;;;;13.99;47.08;101900.91;4947553;29;20110;-35
2024/01/19 07:21:42;;;;;;;2.83;1.35;;;;;;;13.92;47.01;101907.63;4945494;29;20052;-37
2024/01/19 07:24:11;;;;;;;2.47;1.48;;;;;;;13.87;47.28;101909.72;4946766;29;20079;-35
2024/01/19 07:26:39;;;;;;;3.47;1.58;;;;;;;13.81;47.50;101921.63;4946354;29;20051;-35
2024/01/19 07:29:09;;;;;;;2.70;1.60;;;;;;;13.74;47.44;101920.31;4948433;28;20055;-34
2024/01/19 07:31:37;;;;;;;3.13;1.83;;;;;;;13.70;47.21;101924.97;4947881;29;20399;-36
2024/01/19 07:34:04;;;;;;;3.08;1.85;;;;;;;13.67;47.42;101925.19;4946268;29;20061;-35
2024/01/19 07:36:31;;;;;;;4.65;2.10;;;;;;;13.62;47.67;101916.63;4948607;28;20058;-36
2024/01/19 07:38:58;;;;;;;4.35;2.38;;;;;;;13.60;47.87;101923.88;4945904;29;20055;-35
2024/01/19 07:41:25;;;;;;;3.83;2.20;;;;;;;13.57;48.00;101934.72;4946152;29;20171;-35
2024/01/19 07:43:52;;;;;;;6.38;3.00;;;;;;;13.53;48.24;101939.38;4945988;29;20515;-35
2024/01/19 07:46:18;;;;;;;7.07;3.47;;;;;;;13.53;48.09;101938.53;4946162;29;20147;-35
2024/01/19 07:48:45;;;;;;;4.55;2.90;;;;;;;13.49;48.17;101932.53;4943539;29;20043;-35
2024/01/19 07:51:12;;;;;;;5.72;2.88;;;;;;;13.47;48.05;101937.13;4945736;28;20043;-34
2024/01/19 07:53:38;;;;;;;5.13;3.50;;;;;;;13.45;48.09;101936.34;4945525;28;20048;-35
2024/01/19 07:56:05;;;;;;;6.07;3.70;;;;;;;13.44;48.22;101944.44;4942179;29;20055;-36
2024/01/19 07:58:32;;;;;;;7.20;4.00;;;;;;;13.42;48.01;101941.00;4947408;29;20075;-36
2024/01/19 08:00:59;;;;;;;5.85;3.72;;;;;;;13.40;48.19;101941.13;4945342;29;20107;-35
2024/01/19 08:03:26;;;;;;;6.55;3.85;;;;;;;13.38;48.16;101956.31;4943983;29;20039;-34
2024/01/19 08:05:52;;;;;;;6.85;3.97;;;;;;;13.36;48.33;101954.72;4948639;28;20462;-36
2024/01/19 08:08:19;;;;;;;10.98;4.68;;;;;;;13.33;48.02;101953.94;4946714;29;20310;-35
2024/01/19 08:10:46;;;;;;;6.95;3.83;;;;;;;13.30;48.46;101959.47;4943768;28;20134;-35
2024/01/19 08:13:14;;;;;;;7.93;4.40;;;;;;;13.27;48.41;101967.66;4949251;29;20094;-35
2024/01/19 08:15:40;;;;;;;6.57;4.20;;;;;;;13.26;48.25;101973.91;4943157;29;20059;-35
2024/01/19 08:18:07;;;;;;;7.35;4.47;;;;;;;13.24;48.30;101975.84;4945549;29;20281;-34
2024/01/19 08:20:34;;;;;;;7.80;4.40;;;;;;;13.24;48.22;101985.63;4942356;28;20356;-36
2024/01/19 08:23:02;;;;;;;9.05;4.65;;;;;;;13.22;48.09;101977.69;4947267;28;20455;-35
2024/01/19 08:25:28;;;;;;;6.60;4.15;;;;;;;13.25;48.40;101982.88;4945480;29;20126;-34
2024/01/19 08:27:55;;;;;;;10.48;4.90;;;;;;;13.26;48.14;101986.38;4943606;29;20052;-34
2024/01/19 08:30:22;;;;;;;7.38;4.45;;;;;;;13.27;48.30;101990.78;4946693;29;20516;-35
2024/01/19 08:32:48;;;;;;;7.90;5.00;;;;;;;13.26;48.35;101989.03;4944201;29;20070;-35
2024/01/19 08:35:15;;;;;;;9.90;4.90;;;;;;;13.28;48.07;101992.47;4945272;29;20087;-34
2024/01/19 08:37:42;;;;;;;8.60;5.00;;;;;;;13.31;48.14;101989.63;4947171;29;20086;-34
2024/01/19 08:40:13;;;;;;;7.28;5.03;;;;;;;13.40;48.26;102006.84;4944210;29;20066;-36
2024/01/19 08:42:39;;;;;;;10.68;5.63;;;;;;;13.45;48.23;102000.28;4949864;29;20049;-35
2024/01/19 08:45:06;;;;;;;12.98;7.43;;;;;;;13.52;48.22;102006.94;4947338;29;20086;-35
2024/01/19 08:47:33;;;;;;;13.20;7.88;;;;;;;13.58;48.20;102005.69;4943703;28;20455;-35
2024/01/19 08:50:01;;;;;;;21.83;13.00;;;;;;;13.64;48.47;102005.31;4945191;29;20054;-36
2024/01/19 08:52:29;;;;;;;27.90;15.00;;;;;;;13.71;48.87;102009.31;4946498;28;20039;-35
2024/01/19 08:54:56;;;;;;;28.77;18.13;;;;;;;13.77;48.34;102016.91;4947232;28;20051;-37
2024/01/19 08:57:23;;;;;;;35.50;21.65;;;;;;;13.82;48.83;102020.13;4947445;29;20051;-35
2024/01/19 08:59:51;;;;;;;40.08;23.17;;;;;;;13.87;48.71;102018.97;4944235;28;20427;-36
2024/01/19 09:02:18;;;;;;;51.33;30.23;;;;;;;13.94;48.55;102028.28;4945380;28;20057;-37
2024/01/19 09:04:45;;;;;;;60.50;34.88;;;;;;;13.98;48.21;102029.81;4943800;29;20039;-35
2024/01/19 09:07:12;;;;;;;59.50;35.00;;;;;;;14.03;48.15;102031.25;4947426;28;20119;-34
2024/01/19 09:09:41;;;;;;;66.40;41.22;;;;;;;14.06;47.84;102027.50;4947146;28;20115;-35
2024/01/19 09:12:08;;;;;;;68.55;41.63;;;;;;;14.09;48.05;102032.66;4945376;29;20094;-36
2024/01/19 09:14:34;;;;;;;73.07;43.95;;;;;;;14.14;47.82;102033.19;4942140;28;20086;-35
2024/01/19 09:17:01;;;;;;;72.53;44.22;;;;;;;14.18;47.72;102037.38;4944098;28;20134;-35
2024/01/19 09:19:28;;;;;;;77.15;46.28;;;;;;;14.20;47.64;102043.47;4946627;29;20348;-34
2024/01/19 09:21:54;;;;;;;74.65;45.13;;;;;;;14.20;47.79;102043.47;4944028;29;20062;-35
2024/01/19 09:24:21;;;;;;;71.47;44.15;;;;;;;14.20;47.28;102048.81;4944347;29;20431;-37
2024/01/19 09:26:48;;;;;;;76.32;45.25;;;;;;;14.19;47.58;102041.78;4946853;28;20055;-36
2024/01/19 09:29:16;;;;;;;76.10;45.20;;;;;;;14.19;47.54;102054.22;4947878;28;20047;-34
2024/01/19 09:31:47;;;;;;;73.82;45.33;;;;;;;14.20;47.19;102055.97;4946470;29;20580;-36
2024/01/19 09:34:14;;;;;;;74.32;45.35;;;;;;;14.19;48.09;102057.78;4943497;29;20054;-36
2024/01/19 09:36:41;;;;;;;72.32;44.38;;;;;;;14.17;47.80;102056.16;4945304;29;20055;-37
2024/01/19 09:39:08;;;;;;;77.18;45.65;;;;;;;14.16;48.07;102051.78;4946653;29;20094;-38
2024/01/19 09:41:55;;;;;;;68.53;41.38;;;;;;;14.14;48.00;102059.84;4945426;28;20081;-37
2024/01/19 09:44:23;;;;;;;69.78;41.65;;;;;;;14.14;48.20;102059.00;4945860;29;20094;-37
2024/01/19 09:47:20;;;;;;;66.05;39.92;;;;;;;14.10;48.32;102055.69;4942331;29;20051;-35
2024/01/19 09:50:02;;;;;;;66.32;40.17;;;;;;;14.09;48.62;102067.31;4946887;29;20138;-36
2024/01/19 09:52:53;;;;;;;70.10;42.20;;;;;;;14.11;48.75;102069.84;4947690;28;20392;-35
2024/01/19 09:55:20;;;;;;;74.43;45.33;;;;;;;14.14;48.74;102075.84;4942514;29;20139;-35
2024/01/19 09:57:48;;;;;;;99.28;58.45;;;;;;;14.18;48.68;102073.84;4943556;29;20047;-36
2024/01/19 10:00:17;;;;;;;104.35;59.78;;;;;;;14.23;47.91;102077.94;4945093;28;20343;-36
2024/01/19 10:02:46;;;;;;;98.75;57.30;;;;;;;14.26;47.70;102076.88;4938846;29;20066;-37
2024/01/19 10:05:14;;;;;;;103.55;59.10;;;;;;;14.30;47.73;102081.91;4944524;29;20459;-36
2024/01/19 10:07:49;;;;;;;104.68;62.67;;;;;;;14.36;47.86;102086.00;4943342;28;20407;-36
2024/01/19 10:10:15;;;;;;;100.82;59.28;;;;;;;14.39;47.69;102083.16;4944023;29;20082;-39
2024/01/19 10:12:42;;;;;;;106.40;62.38;;;;;;;14.42;47.69;102090.09;4942535;29;20051;-36
2024/01/19 10:15:12;;;;;;;102.35;60.75;;;;;;;14.44;47.66;102094.38;4941881;29;20158;-35
2024/01/19 10:17:40;;;;;;;100.30;57.70;;;;;;;14.48;47.27;102098.56;4943422;29;20043;-37
2024/01/19 10:20:10;;;;;;;103.68;59.53;;;;;;;14.53;47.78;102095.63;4942312;29;20059;-36
2024/01/19 10:22:37;;;;;;;101.10;58.72;;;;;;;14.58;47.74;102106.84;4944520;29;20079;-36
2024/01/19 10:25:08;;;;;;;101.50;58.97;;;;;;;14.62;47.96;102095.00;4945829;29;20500;-35
2024/01/19 10:27:51;;;;;;;97.07;56.45;;;;;;;14.68;48.98;102107.09;4943110;29;20106;-36
2024/01/19 10:30:25;;;;;;;101.57;58.25;;;;;;;14.76;48.63;102105.63;4901259;28;20071;-42
2024/01/19 10:33:06;;;;;;;89.63;54.35;;;;;;;14.81;48.36;102106.19;4935989;28;20523;-40
2024/01/19 10:35:34;;;;;;;90.72;54.38;;;;;;;14.88;48.28;102109.31;4935890;28;20537;-41
2024/01/19 10:38:07;;;;;;;90.00;52.00;;;;;;;14.93;48.69;102117.00;4934703;28;20063;-42
2024/01/19 10:40:34;;;;;;;90.13;52.58;;;;;;;14.97;48.76;102121.19;4939403;28;20128;-42
2024/01/19 10:43:01;;;;;;;84.75;50.60;;;;;;;15.02;48.04;102105.72;4940016;28;20058;-41
2024/01/19 10:45:34;;;;;;;85.55;48.72;;;;;;;15.05;48.44;102105.50;4940729;28;20118;-42
2024/01/19 10:48:05;;;;;;;76.65;47.97;;;;;;;15.12;47.84;102113.97;4939615;28;20351;-41
2024/01/19 10:50:31;;;;;;;79.22;45.63;;;;;;;15.15;48.49;102117.25;4911167;28;20063;-42
2024/01/19 10:53:00;;;;;;;74.32;45.72;;;;;;;15.19;48.58;102124.09;4945123;28;20059;-42
2024/01/19 10:55:31;;;;;;;75.70;44.70;;;;;;;15.22;48.35;102126.56;4940152;28;20392;-41
2024/01/19 10:58:12;;;;;;;73.15;43.00;;;;;;;15.25;48.97;102123.72;4943647;28;20301;-42
2024/01/19 11:00:39;;;;;;;63.20;37.05;;;;;;;15.31;49.08;102125.94;4942218;28;20082;-43
2024/01/19 11:03:06;;;;;;;64.10;39.30;;;;;;;15.35;47.92;102118.56;4938796;28;20047;-41
2024/01/19 11:05:34;;;;;;;63.25;35.85;;;;;;;15.39;47.35;102122.75;4940291;28;20055;-35
2024/01/19 11:08:02;;;;;;;59.78;34.75;;;;;;;15.48;47.23;102118.63;4942083;28;20088;-35
2024/01/19 11:10:31;;;;;;;61.13;34.45;;;;;;;15.57;47.27;102119.78;4908442;28;20639;-35
2024/01/19 11:12:59;;;;;;;54.65;32.67;;;;;;;15.67;47.24;102115.53;4939541;29;20063;-36
2024/01/19 11:15:41;;;;;;;52.67;30.95;;;;;;;15.76;46.45;102120.25;4943325;28;20055;-35
2024/01/19 11:18:07;;;;;;;56.50;33.75;;;;;;;15.85;46.46;102114.25;4943801;28;20054;-36
2024/01/19 11:20:34;;;;;;;59.35;34.75;;;;;;;15.92;47.37;102115.53;4943979;28;20078;-37